sensor_id;sensor_type;location;lat;lon;timestamp;pressure;altitude;pressure_sealevel;temperature;humidity
63281;BME280;49406;51.044;3.766;2023-08-06T00:00:09;100291.91;;;15.24;100.00
63281;BME280;49406;51.044;3.766;2023-08-06T00:02:43;100287.29;;;15.18;100.00
63281;BME280;49406;51.044;3.766;2023-08-06T00:05:18;100285.29;;;15.13;100.00
63281;BME280;49406;51.044;3.766;2023-08-06T00:07:54;100288.84;;;15.10;100.00
63281;BME280;49406;51.044;3.766;2023-08-06T00:10:28;100285.20;;;15.08;100.00
63281;BME280;49406;51.044;3.766;2023-08-06T00:13:03;100282.56;;;15.07;100.00
63281;BME280;49406;51.044;3.766;2023-08-06T00:15:38;100279.05;;;15.07;100.00
63281;BME280;49406;51.044;3.766;2023-08-06T00:18:12;100280.73;;;15.11;100.00
63281;BME280;49406;51.044;3.766;2023-08-06T00:20:47;100282.83;;;15.12;100.00
63281;BME280;49406;51.044;3.766;2023-08-06T00:23:22;100280.82;;;15.16;100.00
63281;BME280;49406;51.044;3.766;2023-08-06T00:25:57;100280.92;;;15.19;100.00
63281;BME280;49406;51.044;3.766;2023-08-06T00:28:31;100288.38;;;15.25;100.00
63281;BME280;49406;51.044;3.766;2023-08-06T00:31:06;100287.07;;;15.29;100.00
63281;BME280;49406;51.044;3.766;2023-08-06T00:33:40;100284.88;;;15.33;100.00
63281;BME280;49406;51.044;3.766;2023-08-06T00:36:15;100287.05;;;15.39;100.00
63281;BME280;49406;51.044;3.766;2023-08-06T00:38:50;100287.15;;;15.42;100.00
63281;BME280;49406;51.044;3.766;2023-08-06T00:41:25;100285.14;;;15.47;100.00
63281;BME280;49406;51.044;3.766;2023-08-06T00:44:00;100286.46;;;15.50;100.00
63281;BME280;49406;51.044;3.766;2023-08-06T00:46:35;100285.52;;;15.53;100.00
63281;BME280;49406;51.044;3.766;2023-08-06T00:49:09;100283.21;;;15.54;100.00
63281;BME280;49406;51.044;3.766;2023-08-06T00:51:44;100287.89;;;15.57;100.00
63281;BME280;49406;51.044;3.766;2023-08-06T00:54:19;100287.20;;;15.58;100.00
63281;BME280;49406;51.044;3.766;2023-08-06T00:56:54;100291.52;;;15.63;100.00
63281;BME280;49406;51.044;3.766;2023-08-06T00:59:31;100293.92;;;15.66;100.00
63281;BME280;49406;51.044;3.766;2023-08-06T01:02:07;100296.00;;;15.68;100.00
63281;BME280;49406;51.044;3.766;2023-08-06T01:04:41;100298.79;;;15.69;100.00
63281;BME280;49406;51.044;3.766;2023-08-06T01:07:26;100303.33;;;15.71;100.00
63281;BME280;49406;51.044;3.766;2023-08-06T01:10:23;100309.62;;;15.73;100.00
63281;BME280;49406;51.044;3.766;2023-08-06T01:13:16;100310.31;;;15.73;100.00
63281;BME280;49406;51.044;3.766;2023-08-06T01:15:56;100313.47;;;15.74;100.00
63281;BME280;49406;51.044;3.766;2023-08-06T01:18:32;100317.19;;;15.74;100.00
63281;BME280;49406;51.044;3.766;2023-08-06T01:21:07;100323.54;;;15.74;100.00
63281;BME280;49406;51.044;3.766;2023-08-06T01:23:42;100329.71;;;15.73;100.00
63281;BME280;49406;51.044;3.766;2023-08-06T01:26:22;100335.77;;;15.70;100.00
63281;BME280;49406;51.044;3.766;2023-08-06T01:29:03;100341.36;;;15.64;100.00
63281;BME280;49406;51.044;3.766;2023-08-06T01:31:41;100346.72;;;15.59;100.00
63281;BME280;49406;51.044;3.766;2023-08-06T01:34:20;100351.90;;;15.55;100.00
63281;BME280;49406;51.044;3.766;2023-08-06T01:36:55;100359.54;;;15.52;100.00
63281;BME280;49406;51.044;3.766;2023-08-06T01:39:31;100361.69;;;15.51;100.00
63281;BME280;49406;51.044;3.766;2023-08-06T01:42:07;100364.26;;;15.46;100.00
63281;BME280;49406;51.044;3.766;2023-08-06T01:44:42;100373.75;;;15.46;100.00
63281;BME280;49406;51.044;3.766;2023-08-06T01:47:17;100379.23;;;15.44;100.00
63281;BME280;49406;51.044;3.766;2023-08-06T01:49:51;100384.05;;;15.42;100.00
63281;BME280;49406;51.044;3.766;2023-08-06T01:52:26;100386.00;;;15.40;100.00
63281;BME280;49406;51.044;3.766;2023-08-06T01:55:01;100392.52;;;15.41;100.00
63281;BME280;49406;51.044;3.766;2023-08-06T01:57:35;100400.14;;;15.39;100.00
63281;BME280;49406;51.044;3.766;2023-08-06T02:00:12;100399.80;;;15.38;100.00
63281;BME280;49406;51.044;3.766;2023-08-06T02:02:46;100410.16;;;15.40;100.00
63281;BME280;49406;51.044;3.766;2023-08-06T02:05:21;100412.27;;;15.39;100.00
63281;BME280;49406;51.044;3.766;2023-08-06T02:07:55;100408.43;;;15.38;100.00
63281;BME280;49406;51.044;3.766;2023-08-06T02:10:30;100420.23;;;15.38;100.00
63281;BME280;49406;51.044;3.766;2023-08-06T02:13:04;100423.59;;;15.36;100.00
63281;BME280;49406;51.044;3.766;2023-08-06T02:15:44;100428.50;;;15.38;100.00
63281;BME280;49406;51.044;3.766;2023-08-06T02:18:20;100436.93;;;15.39;100.00
63281;BME280;49406;51.044;3.766;2023-08-06T02:20:58;100444.16;;;15.39;100.00
63281;BME280;49406;51.044;3.766;2023-08-06T02:23:33;100443.45;;;15.39;100.00
63281;BME280;49406;51.044;3.766;2023-08-06T02:26:08;100452.97;;;15.39;100.00
63281;BME280;49406;51.044;3.766;2023-08-06T02:28:42;100458.06;;;15.39;100.00
63281;BME280;49406;51.044;3.766;2023-08-06T02:31:17;100462.30;;;15.39;100.00
63281;BME280;49406;51.044;3.766;2023-08-06T02:33:51;100465.27;;;15.40;100.00
63281;BME280;49406;51.044;3.766;2023-08-06T02:36:27;100473.04;;;15.39;100.00
63281;BME280;49406;51.044;3.766;2023-08-06T02:39:02;100471.81;;;15.39;100.00
63281;BME280;49406;51.044;3.766;2023-08-06T02:41:37;100479.68;;;15.42;100.00
63281;BME280;49406;51.044;3.766;2023-08-06T02:44:11;100478.83;;;15.41;100.00
63281;BME280;49406;51.044;3.766;2023-08-06T02:46:47;100485.58;;;15.37;100.00
63281;BME280;49406;51.044;3.766;2023-08-06T02:49:21;100488.02;;;15.29;100.00
63281;BME280;49406;51.044;3.766;2023-08-06T02:51:55;100492.95;;;15.18;100.00
63281;BME280;49406;51.044;3.766;2023-08-06T02:54:30;100506.61;;;15.11;100.00
63281;BME280;49406;51.044;3.766;2023-08-06T02:57:06;100516.09;;;15.02;100.00
63281;BME280;49406;51.044;3.766;2023-08-06T02:59:40;100523.06;;;14.95;100.00
63281;BME280;49406;51.044;3.766;2023-08-06T03:02:15;100527.53;;;14.90;100.00
63281;BME280;49406;51.044;3.766;2023-08-06T03:04:50;100537.48;;;14.84;100.00
63281;BME280;49406;51.044;3.766;2023-08-06T03:07:24;100544.38;;;14.82;100.00
63281;BME280;49406;51.044;3.766;2023-08-06T03:09:59;100549.54;;;14.78;100.00
63281;BME280;49406;51.044;3.766;2023-08-06T03:12:35;100557.70;;;14.71;100.00
63281;BME280;49406;51.044;3.766;2023-08-06T03:15:10;100556.34;;;14.68;100.00
63281;BME280;49406;51.044;3.766;2023-08-06T03:17:45;100566.23;;;14.67;100.00
63281;BME280;49406;51.044;3.766;2023-08-06T03:20:20;100568.54;;;14.64;100.00
63281;BME280;49406;51.044;3.766;2023-08-06T03:22:54;100575.81;;;14.58;100.00
63281;BME280;49406;51.044;3.766;2023-08-06T03:25:29;100585.54;;;14.55;100.00
63281;BME280;49406;51.044;3.766;2023-08-06T03:28:03;100588.41;;;14.51;100.00
63281;BME280;49406;51.044;3.766;2023-08-06T03:30:38;100599.13;;;14.51;100.00
63281;BME280;49406;51.044;3.766;2023-08-06T03:33:13;100603.89;;;14.51;100.00
63281;BME280;49406;51.044;3.766;2023-08-06T03:35:48;100609.02;;;14.48;100.00
63281;BME280;49406;51.044;3.766;2023-08-06T03:38:22;100613.78;;;14.48;100.00
63281;BME280;49406;51.044;3.766;2023-08-06T03:40:57;100620.09;;;14.50;100.00
63281;BME280;49406;51.044;3.766;2023-08-06T03:43:32;100633.80;;;14.50;100.00
63281;BME280;49406;51.044;3.766;2023-08-06T03:46:06;100633.66;;;14.48;100.00
63281;BME280;49406;51.044;3.766;2023-08-06T03:48:41;100628.55;;;14.48;100.00
63281;BME280;49406;51.044;3.766;2023-08-06T03:51:15;100644.39;;;14.48;100.00
63281;BME280;49406;51.044;3.766;2023-08-06T03:53:50;100647.00;;;14.50;100.00
63281;BME280;49406;51.044;3.766;2023-08-06T03:56:25;100651.00;;;14.53;100.00
63281;BME280;49406;51.044;3.766;2023-08-06T03:58:59;100654.84;;;14.55;100.00
63281;BME280;49406;51.044;3.766;2023-08-06T04:01:34;100660.42;;;14.59;100.00
63281;BME280;49406;51.044;3.766;2023-08-06T04:04:09;100663.95;;;14.61;100.00
63281;BME280;49406;51.044;3.766;2023-08-06T04:06:43;100665.35;;;14.60;100.00
63281;BME280;49406;51.044;3.766;2023-08-06T04:09:18;100676.95;;;14.60;100.00
63281;BME280;49406;51.044;3.766;2023-08-06T04:11:53;100682.42;;;14.59;100.00
63281;BME280;49406;51.044;3.766;2023-08-06T04:14:29;100691.41;;;14.57;100.00
63281;BME280;49406;51.044;3.766;2023-08-06T04:17:04;100697.23;;;14.57;100.00
63281;BME280;49406;51.044;3.766;2023-08-06T04:19:38;100702.88;;;14.55;100.00
63281;BME280;49406;51.044;3.766;2023-08-06T04:22:13;100709.75;;;14.54;100.00
63281;BME280;49406;51.044;3.766;2023-08-06T04:24:48;100711.16;;;14.54;100.00
63281;BME280;49406;51.044;3.766;2023-08-06T04:27:23;100717.33;;;14.53;100.00
63281;BME280;49406;51.044;3.766;2023-08-06T04:29:57;100726.11;;;14.54;100.00
63281;BME280;49406;51.044;3.766;2023-08-06T04:32:32;100733.30;;;14.55;100.00
63281;BME280;49406;51.044;3.766;2023-08-06T04:35:07;100738.04;;;14.56;100.00
63281;BME280;49406;51.044;3.766;2023-08-06T04:37:42;100749.80;;;14.58;100.00
63281;BME280;49406;51.044;3.766;2023-08-06T04:40:17;100752.62;;;14.58;100.00
63281;BME280;49406;51.044;3.766;2023-08-06T04:42:51;100760.70;;;14.61;100.00
63281;BME280;49406;51.044;3.766;2023-08-06T04:45:26;100766.11;;;14.65;100.00
63281;BME280;49406;51.044;3.766;2023-08-06T04:48:01;100771.92;;;14.65;100.00
63281;BME280;49406;51.044;3.766;2023-08-06T04:50:35;100775.60;;;14.66;100.00
63281;BME280;49406;51.044;3.766;2023-08-06T04:53:10;100785.45;;;14.66;100.00
63281;BME280;49406;51.044;3.766;2023-08-06T04:55:45;100785.11;;;14.65;100.00
63281;BME280;49406;51.044;3.766;2023-08-06T04:58:19;100792.16;;;14.65;100.00
63281;BME280;49406;51.044;3.766;2023-08-06T05:00:55;100792.88;;;14.63;100.00
63281;BME280;49406;51.044;3.766;2023-08-06T05:03:30;100801.81;;;14.67;100.00
63281;BME280;49406;51.044;3.766;2023-08-06T05:06:04;100805.69;;;14.67;100.00
63281;BME280;49406;51.044;3.766;2023-08-06T05:08:39;100815.20;;;14.66;100.00
63281;BME280;49406;51.044;3.766;2023-08-06T05:11:14;100814.84;;;14.66;100.00
63281;BME280;49406;51.044;3.766;2023-08-06T05:13:48;100821.16;;;14.68;100.00
63281;BME280;49406;51.044;3.766;2023-08-06T05:16:23;100825.36;;;14.69;100.00
63281;BME280;49406;51.044;3.766;2023-08-06T05:18:58;100826.92;;;14.71;100.00
63281;BME280;49406;51.044;3.766;2023-08-06T05:21:32;100832.56;;;14.71;100.00
63281;BME280;49406;51.044;3.766;2023-08-06T05:24:07;100827.64;;;14.70;100.00
63281;BME280;49406;51.044;3.766;2023-08-06T05:26:41;100833.23;;;14.73;100.00
63281;BME280;49406;51.044;3.766;2023-08-06T05:29:19;100839.02;;;14.78;100.00
63281;BME280;49406;51.044;3.766;2023-08-06T05:31:54;100839.88;;;14.81;100.00
63281;BME280;49406;51.044;3.766;2023-08-06T05:34:29;100842.66;;;14.83;100.00
63281;BME280;49406;51.044;3.766;2023-08-06T05:37:04;100849.33;;;14.86;100.00
63281;BME280;49406;51.044;3.766;2023-08-06T05:39:38;100853.70;;;14.88;100.00
63281;BME280;49406;51.044;3.766;2023-08-06T05:42:13;100857.55;;;14.90;100.00
63281;BME280;49406;51.044;3.766;2023-08-06T05:44:47;100858.40;;;14.94;100.00
63281;BME280;49406;51.044;3.766;2023-08-06T05:47:22;100864.91;;;14.96;100.00
63281;BME280;49406;51.044;3.766;2023-08-06T05:49:57;100867.55;;;14.95;100.00
63281;BME280;49406;51.044;3.766;2023-08-06T05:52:31;100872.65;;;14.96;100.00
63281;BME280;49406;51.044;3.766;2023-08-06T05:55:07;100880.02;;;14.99;100.00
63281;BME280;49406;51.044;3.766;2023-08-06T05:57:42;100883.13;;;15.04;100.00
63281;BME280;49406;51.044;3.766;2023-08-06T06:00:17;100880.79;;;15.10;100.00
63281;BME280;49406;51.044;3.766;2023-08-06T06:02:51;100890.08;;;15.15;100.00
63281;BME280;49406;51.044;3.766;2023-08-06T06:05:26;100894.11;;;15.15;100.00
63281;BME280;49406;51.044;3.766;2023-08-06T06:08:00;100900.81;;;15.14;100.00
63281;BME280;49406;51.044;3.766;2023-08-06T06:10:36;100900.48;;;15.11;100.00
63281;BME280;49406;51.044;3.766;2023-08-06T06:13:11;100907.42;;;15.05;100.00
63281;BME280;49406;51.044;3.766;2023-08-06T06:15:45;100911.62;;;15.08;100.00
63281;BME280;49406;51.044;3.766;2023-08-06T06:18:20;100926.02;;;15.10;100.00
63281;BME280;49406;51.044;3.766;2023-08-06T06:20:55;100929.91;;;15.09;100.00
63281;BME280;49406;51.044;3.766;2023-08-06T06:23:29;100939.39;;;15.15;100.00
63281;BME280;49406;51.044;3.766;2023-08-06T06:26:04;100942.65;;;15.22;100.00
63281;BME280;49406;51.044;3.766;2023-08-06T06:28:38;100944.51;;;15.32;100.00
63281;BME280;49406;51.044;3.766;2023-08-06T06:31:13;100954.52;;;15.34;100.00
63281;BME280;49406;51.044;3.766;2023-08-06T06:33:47;100955.48;;;15.26;100.00
63281;BME280;49406;51.044;3.766;2023-08-06T06:36:22;100966.98;;;15.20;100.00
63281;BME280;49406;51.044;3.766;2023-08-06T06:38:57;100977.96;;;15.12;100.00
63281;BME280;49406;51.044;3.766;2023-08-06T06:41:31;100980.35;;;14.99;100.00
63281;BME280;49406;51.044;3.766;2023-08-06T06:44:06;100978.38;;;14.83;100.00
63281;BME280;49406;51.044;3.766;2023-08-06T06:46:41;100976.65;;;14.74;100.00
63281;BME280;49406;51.044;3.766;2023-08-06T06:49:15;100980.36;;;14.73;100.00
63281;BME280;49406;51.044;3.766;2023-08-06T06:51:50;100984.04;;;14.77;100.00
63281;BME280;49406;51.044;3.766;2023-08-06T06:54:25;100986.83;;;14.83;100.00
63281;BME280;49406;51.044;3.766;2023-08-06T06:56:59;100984.98;;;14.92;100.00
63281;BME280;49406;51.044;3.766;2023-08-06T06:59:34;100995.67;;;15.00;100.00
63281;BME280;49406;51.044;3.766;2023-08-06T07:02:09;100998.80;;;15.04;100.00
63281;BME280;49406;51.044;3.766;2023-08-06T07:04:43;101005.27;;;15.09;100.00
63281;BME280;49406;51.044;3.766;2023-08-06T07:07:18;101008.60;;;15.14;100.00
63281;BME280;49406;51.044;3.766;2023-08-06T07:09:53;101009.26;;;15.18;100.00
63281;BME280;49406;51.044;3.766;2023-08-06T07:12:27;101000.38;;;15.26;100.00
63281;BME280;49406;51.044;3.766;2023-08-06T07:15:02;101004.55;;;15.33;100.00
63281;BME280;49406;51.044;3.766;2023-08-06T07:17:37;101013.63;;;15.43;100.00
63281;BME280;49406;51.044;3.766;2023-08-06T07:20:12;101014.52;;;15.62;100.00
63281;BME280;49406;51.044;3.766;2023-08-06T07:22:47;101021.71;;;15.84;100.00
63281;BME280;49406;51.044;3.766;2023-08-06T07:25:21;101023.18;;;15.95;100.00
63281;BME280;49406;51.044;3.766;2023-08-06T07:27:56;101032.48;;;15.83;100.00
63281;BME280;49406;51.044;3.766;2023-08-06T07:30:30;101032.04;;;15.74;100.00
63281;BME280;49406;51.044;3.766;2023-08-06T07:33:05;101032.79;;;15.70;100.00
63281;BME280;49406;51.044;3.766;2023-08-06T07:35:40;101037.98;;;15.60;100.00
63281;BME280;49406;51.044;3.766;2023-08-06T07:38:16;101034.31;;;15.55;100.00
63281;BME280;49406;51.044;3.766;2023-08-06T07:40:50;101036.48;;;15.50;100.00
63281;BME280;49406;51.044;3.766;2023-08-06T07:43:25;101037.21;;;15.47;100.00
63281;BME280;49406;51.044;3.766;2023-08-06T07:46:00;101037.25;;;15.40;100.00
63281;BME280;49406;51.044;3.766;2023-08-06T07:48:35;101037.86;;;15.32;100.00
63281;BME280;49406;51.044;3.766;2023-08-06T07:51:10;101044.55;;;15.33;100.00
63281;BME280;49406;51.044;3.766;2023-08-06T07:53:44;101042.29;;;15.29;100.00
63281;BME280;49406;51.044;3.766;2023-08-06T07:56:19;101043.36;;;15.28;100.00
63281;BME280;49406;51.044;3.766;2023-08-06T07:58:54;101038.58;;;15.31;100.00
63281;BME280;49406;51.044;3.766;2023-08-06T08:01:28;101043.04;;;15.44;100.00
63281;BME280;49406;51.044;3.766;2023-08-06T08:04:03;101045.00;;;15.64;100.00
63281;BME280;49406;51.044;3.766;2023-08-06T08:06:38;101044.70;;;15.77;100.00
63281;BME280;49406;51.044;3.766;2023-08-06T08:09:13;101041.66;;;15.82;100.00
63281;BME280;49406;51.044;3.766;2023-08-06T08:11:47;101050.70;;;15.93;100.00
63281;BME280;49406;51.044;3.766;2023-08-06T08:14:23;101049.60;;;15.99;100.00
63281;BME280;49406;51.044;3.766;2023-08-06T08:16:58;101051.88;;;16.01;100.00
63281;BME280;49406;51.044;3.766;2023-08-06T08:19:32;101058.46;;;15.93;100.00
63281;BME280;49406;51.044;3.766;2023-08-06T08:22:07;101057.21;;;15.80;100.00
63281;BME280;49406;51.044;3.766;2023-08-06T08:24:42;101059.70;;;15.75;100.00
63281;BME280;49406;51.044;3.766;2023-08-06T08:27:16;101059.02;;;15.72;100.00
63281;BME280;49406;51.044;3.766;2023-08-06T08:29:51;101057.55;;;15.77;100.00
63281;BME280;49406;51.044;3.766;2023-08-06T08:32:25;101059.67;;;15.79;100.00
63281;BME280;49406;51.044;3.766;2023-08-06T08:35:00;101058.61;;;15.80;100.00
63281;BME280;49406;51.044;3.766;2023-08-06T08:37:35;101061.80;;;15.76;100.00
63281;BME280;49406;51.044;3.766;2023-08-06T08:40:13;101066.95;;;15.73;100.00
63281;BME280;49406;51.044;3.766;2023-08-06T08:42:48;101065.17;;;15.74;100.00
63281;BME280;49406;51.044;3.766;2023-08-06T08:45:21;101070.82;;;15.73;100.00
63281;BME280;49406;51.044;3.766;2023-08-06T08:47:56;101078.80;;;15.69;100.00
63281;BME280;49406;51.044;3.766;2023-08-06T08:50:32;101083.09;;;15.59;100.00
63281;BME280;49406;51.044;3.766;2023-08-06T08:53:07;101078.09;;;15.46;100.00
63281;BME280;49406;51.044;3.766;2023-08-06T08:55:46;101084.67;;;15.38;100.00
63281;BME280;49406;51.044;3.766;2023-08-06T08:58:21;101083.29;;;15.34;100.00
63281;BME280;49406;51.044;3.766;2023-08-06T09:00:56;101085.58;;;15.34;100.00
63281;BME280;49406;51.044;3.766;2023-08-06T09:03:31;101092.45;;;15.34;100.00
63281;BME280;49406;51.044;3.766;2023-08-06T09:06:07;101097.25;;;15.25;100.00
63281;BME280;49406;51.044;3.766;2023-08-06T09:08:49;101093.91;;;15.25;100.00
63281;BME280;49406;51.044;3.766;2023-08-06T09:11:25;101094.25;;;15.26;100.00
63281;BME280;49406;51.044;3.766;2023-08-06T09:14:00;101100.23;;;15.30;100.00
63281;BME280;49406;51.044;3.766;2023-08-06T09:16:36;101100.55;;;15.33;100.00
63281;BME280;49406;51.044;3.766;2023-08-06T09:19:12;101110.00;;;15.42;100.00
63281;BME280;49406;51.044;3.766;2023-08-06T09:21:47;101115.41;;;15.51;100.00
63281;BME280;49406;51.044;3.766;2023-08-06T09:24:22;101116.05;;;15.60;100.00
63281;BME280;49406;51.044;3.766;2023-08-06T09:26:58;101119.17;;;15.68;100.00
63281;BME280;49406;51.044;3.766;2023-08-06T09:29:41;101123.39;;;15.70;100.00
63281;BME280;49406;51.044;3.766;2023-08-06T09:32:18;101137.77;;;15.54;100.00
63281;BME280;49406;51.044;3.766;2023-08-06T09:34:57;101134.40;;;15.29;100.00
63281;BME280;49406;51.044;3.766;2023-08-06T09:37:38;101140.11;;;15.18;100.00
63281;BME280;49406;51.044;3.766;2023-08-06T09:40:27;101142.44;;;15.14;100.00
63281;BME280;49406;51.044;3.766;2023-08-06T09:43:02;101150.33;;;15.19;100.00
63281;BME280;49406;51.044;3.766;2023-08-06T09:45:37;101157.79;;;15.35;100.00
63281;BME280;49406;51.044;3.766;2023-08-06T09:48:12;101158.30;;;15.38;100.00
63281;BME280;49406;51.044;3.766;2023-08-06T09:50:47;101165.02;;;15.35;100.00
63281;BME280;49406;51.044;3.766;2023-08-06T09:53:23;101171.93;;;15.30;100.00
63281;BME280;49406;51.044;3.766;2023-08-06T09:55:58;101174.60;;;15.22;100.00
63281;BME280;49406;51.044;3.766;2023-08-06T09:58:33;101189.42;;;15.18;100.00
63281;BME280;49406;51.044;3.766;2023-08-06T10:01:08;101190.16;;;15.09;100.00
63281;BME280;49406;51.044;3.766;2023-08-06T10:03:45;101188.59;;;15.07;100.00
63281;BME280;49406;51.044;3.766;2023-08-06T10:06:21;101187.17;;;15.09;100.00
63281;BME280;49406;51.044;3.766;2023-08-06T10:08:57;101185.05;;;15.13;100.00
63281;BME280;49406;51.044;3.766;2023-08-06T10:11:32;101188.70;;;15.20;100.00
63281;BME280;49406;51.044;3.766;2023-08-06T10:14:10;101186.33;;;15.38;100.00
63281;BME280;49406;51.044;3.766;2023-08-06T10:16:47;101184.28;;;15.55;100.00
63281;BME280;49406;51.044;3.766;2023-08-06T10:19:22;101193.52;;;15.72;100.00
63281;BME280;49406;51.044;3.766;2023-08-06T10:22:14;101193.57;;;15.88;100.00
63281;BME280;49406;51.044;3.766;2023-08-06T10:24:52;101198.59;;;16.00;100.00
63281;BME280;49406;51.044;3.766;2023-08-06T10:27:31;101201.69;;;16.08;100.00
63281;BME280;49406;51.044;3.766;2023-08-06T10:30:24;101200.36;;;15.99;100.00
63281;BME280;49406;51.044;3.766;2023-08-06T10:33:01;101208.59;;;16.06;100.00
63281;BME280;49406;51.044;3.766;2023-08-06T10:35:43;101209.43;;;16.10;100.00
63281;BME280;49406;51.044;3.766;2023-08-06T10:38:19;101212.02;;;16.18;100.00
63281;BME280;49406;51.044;3.766;2023-08-06T10:41:03;101212.92;;;16.15;100.00
63281;BME280;49406;51.044;3.766;2023-08-06T10:43:38;101211.70;;;16.15;100.00
63281;BME280;49406;51.044;3.766;2023-08-06T10:46:22;101207.58;;;16.21;100.00
63281;BME280;49406;51.044;3.766;2023-08-06T10:48:57;101219.98;;;16.14;100.00
63281;BME280;49406;51.044;3.766;2023-08-06T10:51:32;101223.23;;;16.06;100.00
63281;BME280;49406;51.044;3.766;2023-08-06T10:54:07;101228.62;;;15.93;100.00
63281;BME280;49406;51.044;3.766;2023-08-06T10:56:42;101228.47;;;15.62;100.00
63281;BME280;49406;51.044;3.766;2023-08-06T10:59:18;101234.90;;;15.46;100.00
63281;BME280;49406;51.044;3.766;2023-08-06T11:01:53;101234.07;;;15.36;100.00
63281;BME280;49406;51.044;3.766;2023-08-06T11:04:31;101232.20;;;15.22;100.00
63281;BME280;49406;51.044;3.766;2023-08-06T11:07:08;101248.09;;;15.17;100.00
63281;BME280;49406;51.044;3.766;2023-08-06T11:09:42;101256.05;;;15.02;100.00
63281;BME280;49406;51.044;3.766;2023-08-06T11:12:20;101261.39;;;14.87;100.00
63281;BME280;49406;51.044;3.766;2023-08-06T11:14:55;101268.10;;;14.80;100.00
63281;BME280;49406;51.044;3.766;2023-08-06T11:17:31;101266.88;;;14.73;100.00
63281;BME280;49406;51.044;3.766;2023-08-06T11:20:07;101263.38;;;14.65;100.00
63281;BME280;49406;51.044;3.766;2023-08-06T11:22:42;101263.70;;;14.71;100.00
63281;BME280;49406;51.044;3.766;2023-08-06T11:25:19;101263.50;;;14.87;100.00
63281;BME280;49406;51.044;3.766;2023-08-06T11:27:53;101259.08;;;14.98;100.00
63281;BME280;49406;51.044;3.766;2023-08-06T11:30:28;101258.66;;;15.13;100.00
63281;BME280;49406;51.044;3.766;2023-08-06T11:33:02;101252.80;;;15.24;100.00
63281;BME280;49406;51.044;3.766;2023-08-06T11:35:37;101254.67;;;15.37;100.00
63281;BME280;49406;51.044;3.766;2023-08-06T11:38:14;101255.83;;;15.56;100.00
63281;BME280;49406;51.044;3.766;2023-08-06T11:40:51;101250.77;;;15.75;100.00
63281;BME280;49406;51.044;3.766;2023-08-06T11:43:26;101255.58;;;15.96;100.00
63281;BME280;49406;51.044;3.766;2023-08-06T11:46:04;101259.61;;;16.02;100.00
63281;BME280;49406;51.044;3.766;2023-08-06T11:48:53;101255.95;;;16.16;100.00
63281;BME280;49406;51.044;3.766;2023-08-06T11:51:28;101254.35;;;16.38;100.00
63281;BME280;49406;51.044;3.766;2023-08-06T11:54:03;101258.41;;;16.56;100.00
63281;BME280;49406;51.044;3.766;2023-08-06T11:56:38;101255.35;;;16.64;100.00
63281;BME280;49406;51.044;3.766;2023-08-06T11:59:12;101273.83;;;16.49;100.00
63281;BME280;49406;51.044;3.766;2023-08-06T12:01:47;101288.88;;;16.24;100.00
63281;BME280;49406;51.044;3.766;2023-08-06T12:04:22;101284.58;;;16.09;100.00
63281;BME280;49406;51.044;3.766;2023-08-06T12:06:56;101280.81;;;15.93;100.00
63281;BME280;49406;51.044;3.766;2023-08-06T12:09:38;101282.77;;;15.90;100.00
63281;BME280;49406;51.044;3.766;2023-08-06T12:12:13;101276.80;;;15.89;100.00
63281;BME280;49406;51.044;3.766;2023-08-06T12:14:48;101283.98;;;15.93;100.00
63281;BME280;49406;51.044;3.766;2023-08-06T12:17:22;101285.02;;;15.97;100.00
63281;BME280;49406;51.044;3.766;2023-08-06T12:19:57;101281.64;;;16.01;100.00
63281;BME280;49406;51.044;3.766;2023-08-06T12:22:32;101293.59;;;16.07;100.00
63281;BME280;49406;51.044;3.766;2023-08-06T12:25:09;101303.09;;;16.11;100.00
63281;BME280;49406;51.044;3.766;2023-08-06T12:27:46;101306.39;;;16.17;100.00
63281;BME280;49406;51.044;3.766;2023-08-06T12:30:20;101311.65;;;16.22;100.00
63281;BME280;49406;51.044;3.766;2023-08-06T12:32:55;101319.43;;;16.20;100.00
63281;BME280;49406;51.044;3.766;2023-08-06T12:35:28;101315.46;;;16.07;100.00
63281;BME280;49406;51.044;3.766;2023-08-06T12:38:03;101300.63;;;16.08;100.00
63281;BME280;49406;51.044;3.766;2023-08-06T12:40:37;101316.42;;;16.20;100.00
63281;BME280;49406;51.044;3.766;2023-08-06T12:43:12;101322.11;;;16.36;100.00
63281;BME280;49406;51.044;3.766;2023-08-06T12:45:46;101323.77;;;16.52;100.00
63281;BME280;49406;51.044;3.766;2023-08-06T12:48:22;101327.55;;;16.62;100.00
63281;BME280;49406;51.044;3.766;2023-08-06T12:50:56;101322.04;;;16.70;100.00
63281;BME280;49406;51.044;3.766;2023-08-06T12:53:31;101333.08;;;16.55;100.00
63281;BME280;49406;51.044;3.766;2023-08-06T12:56:06;101341.84;;;16.40;100.00
63281;BME280;49406;51.044;3.766;2023-08-06T12:58:41;101347.86;;;16.38;100.00
63281;BME280;49406;51.044;3.766;2023-08-06T13:01:15;101340.22;;;16.23;100.00
63281;BME280;49406;51.044;3.766;2023-08-06T13:03:50;101357.06;;;16.12;100.00
63281;BME280;49406;51.044;3.766;2023-08-06T13:06:24;101359.55;;;16.07;100.00
63281;BME280;49406;51.044;3.766;2023-08-06T13:08:59;101359.88;;;16.12;100.00
63281;BME280;49406;51.044;3.766;2023-08-06T13:11:34;101360.66;;;16.26;100.00
63281;BME280;49406;51.044;3.766;2023-08-06T13:14:10;101364.78;;;16.42;100.00
63281;BME280;49406;51.044;3.766;2023-08-06T13:16:43;101371.45;;;16.48;100.00
63281;BME280;49406;51.044;3.766;2023-08-06T13:19:18;101379.22;;;16.48;100.00
63281;BME280;49406;51.044;3.766;2023-08-06T13:22:12;101386.48;;;16.42;100.00